createdAt,value
2018-09-10T00:00:47.360Z,16.60
2018-09-10T00:03:15.846Z,16.60
2018-09-10T00:05:44.441Z,16.40
2018-09-10T00:08:12.972Z,16.40
2018-09-10T00:10:48.101Z,16.30
2018-09-10T00:13:16.597Z,16.40
2018-09-10T00:15:45.064Z,16.40
2018-09-10T00:18:13.517Z,16.60
2018-09-10T00:20:42.079Z,16.60
2018-09-10T00:23:10.525Z,16.60
2018-09-10T00:25:39.030Z,16.60
2018-09-10T00:28:07.546Z,16.50
2018-09-10T00:30:36.017Z,16.40
2018-09-10T00:33:04.483Z,16.40
2018-09-10T00:35:32.931Z,16.40
2018-09-10T00:38:01.380Z,16.40
2018-09-10T00:40:29.844Z,16.40
2018-09-10T00:42:58.309Z,16.40
2018-09-10T00:45:27.391Z,16.40
2018-09-10T00:47:55.839Z,16.30
2018-09-10T00:50:24.355Z,16.30
2018-09-10T00:52:52.907Z,16.30
2018-09-10T00:55:21.526Z,16.20
2018-09-10T00:57:50.306Z,16.20
2018-09-10T01:00:18.775Z,16.00
2018-09-10T01:02:47.252Z,16.00
2018-09-10T01:05:15.705Z,16.20
2018-09-10T01:07:44.215Z,16.80
2018-09-10T01:10:12.661Z,17.10
2018-09-10T01:12:41.152Z,17.20
2018-09-10T01:15:09.622Z,17.30
2018-09-10T01:17:38.118Z,17.20
2018-09-10T01:20:06.601Z,17.20
2018-09-10T01:22:35.661Z,17.00
2018-09-10T01:25:04.209Z,16.90
2018-09-10T01:27:32.688Z,16.80
2018-09-10T01:30:01.131Z,16.70
2018-09-10T01:32:29.567Z,16.80
2018-09-10T01:35:05.311Z,16.90
2018-09-10T01:37:34.550Z,16.90
2018-09-10T01:40:03.650Z,16.90
2018-09-10T01:42:32.841Z,16.90
2018-09-10T01:45:02.067Z,16.90
2018-09-10T01:47:30.994Z,16.80
2018-09-10T01:49:59.457Z,16.90
2018-09-10T01:52:28.715Z,16.90
2018-09-10T01:54:57.275Z,16.90
2018-09-10T01:57:25.796Z,16.90
2018-09-10T01:59:54.236Z,16.90
2018-09-10T02:02:22.685Z,16.80
2018-09-10T02:04:51.194Z,16.70
2018-09-10T02:07:19.690Z,16.70
2018-09-10T02:09:48.146Z,16.60
2018-09-10T02:12:22.131Z,16.60
2018-09-10T02:14:50.592Z,16.50
2018-09-10T02:17:19.093Z,16.40
2018-09-10T02:19:47.553Z,16.30
2018-09-10T02:22:16.012Z,16.20
2018-09-10T02:24:44.473Z,16.20
2018-09-10T02:27:13.034Z,16.20
2018-09-10T02:29:41.720Z,16.20
2018-09-10T02:32:10.189Z,16.30
2018-09-10T02:34:38.744Z,16.30
2018-09-10T02:37:07.234Z,16.30
2018-09-10T02:39:35.688Z,16.30
2018-09-10T02:42:04.169Z,16.20
2018-09-10T02:44:32.602Z,16.20
2018-09-10T02:47:01.054Z,16.20
2018-09-10T02:49:29.508Z,16.20
2018-09-10T02:51:58.028Z,16.10
2018-09-10T02:54:26.491Z,16.10
2018-09-10T02:56:54.962Z,16.10
2018-09-10T02:59:23.417Z,16.10
2018-09-10T03:01:52.002Z,16.10
2018-09-10T03:04:20.460Z,16.10
2018-09-10T03:06:48.929Z,16.20
2018-09-10T03:09:17.386Z,16.10
2018-09-10T03:11:45.850Z,16.10
2018-09-10T03:14:14.293Z,16.10
2018-09-10T03:16:42.994Z,16.10
2018-09-10T03:19:11.442Z,16.10
2018-09-10T03:21:40.130Z,16.10
2018-09-10T03:24:08.643Z,16.10
2018-09-10T03:26:37.117Z,16.20
2018-09-10T03:29:05.582Z,16.20
2018-09-10T03:31:34.030Z,16.20
2018-09-10T03:34:02.541Z,16.20
2018-09-10T03:36:31.021Z,16.10
2018-09-10T03:38:59.528Z,16.10
2018-09-10T03:41:27.984Z,16.00
2018-09-10T03:43:56.484Z,16.00
2018-09-10T03:46:25.417Z,16.10
2018-09-10T03:48:53.907Z,16.10
2018-09-10T03:51:22.387Z,16.10
2018-09-10T03:53:50.866Z,16.10
2018-09-10T03:56:19.348Z,16.10
2018-09-10T03:58:47.803Z,16.10
2018-09-10T04:01:16.602Z,16.10
2018-09-10T04:03:45.066Z,16.20
2018-09-10T04:06:13.582Z,16.10
2018-09-10T04:08:42.163Z,16.10
2018-09-10T04:11:17.381Z,16.10
2018-09-10T04:13:45.881Z,16.10
2018-09-10T04:16:14.384Z,16.00
2018-09-10T04:18:42.921Z,16.00
2018-09-10T04:21:11.453Z,16.00
2018-09-10T04:23:39.902Z,15.90
2018-09-10T04:26:08.391Z,15.90
2018-09-10T04:28:37.241Z,15.90
2018-09-10T04:31:05.757Z,15.90
2018-09-10T04:33:34.248Z,15.80
2018-09-10T04:36:02.758Z,15.70
2018-09-10T04:38:31.202Z,15.70
2018-09-10T04:40:59.650Z,15.70
2018-09-10T04:43:28.134Z,15.70
2018-09-10T04:45:56.617Z,15.70
2018-09-10T04:48:25.043Z,15.70
2018-09-10T04:50:54.097Z,15.70
2018-09-10T04:53:22.633Z,15.80
2018-09-10T04:55:51.183Z,15.70
2018-09-10T04:58:19.613Z,15.70
2018-09-10T05:00:48.214Z,15.70
2018-09-10T05:03:17.429Z,15.70
2018-09-10T05:05:45.917Z,15.80
2018-09-10T05:08:14.350Z,15.80
2018-09-10T05:10:42.875Z,15.80
2018-09-10T05:13:11.395Z,15.80
2018-09-10T05:15:39.841Z,15.80
2018-09-10T05:18:08.314Z,15.80
2018-09-10T05:20:36.780Z,15.80
2018-09-10T05:23:05.325Z,15.70
2018-09-10T05:25:34.345Z,15.60
2018-09-10T05:28:02.852Z,15.80
2018-09-10T05:30:31.317Z,15.80
2018-09-10T05:32:59.798Z,15.70
2018-09-10T05:35:28.215Z,15.70
2018-09-10T05:37:56.673Z,15.70
2018-09-10T05:40:25.137Z,15.70
2018-09-10T05:42:53.674Z,15.70
2018-09-10T05:45:22.181Z,15.70
2018-09-10T05:47:50.621Z,15.70
2018-09-10T05:50:19.101Z,15.80
2018-09-10T05:52:47.526Z,15.80
2018-09-10T05:55:16.046Z,15.90
2018-09-10T05:57:44.481Z,15.90
2018-09-10T06:00:13.017Z,15.90
2018-09-10T06:02:41.510Z,15.90
2018-09-10T06:05:09.961Z,16.00
2018-09-10T06:07:38.426Z,16.00
2018-09-10T06:10:06.914Z,16.00
2018-09-10T06:12:35.336Z,16.10
2018-09-10T06:15:03.930Z,16.10
2018-09-10T06:17:32.385Z,16.20
2018-09-10T06:20:00.871Z,16.20
2018-09-10T06:22:29.341Z,16.30
2018-09-10T06:24:57.798Z,16.30
2018-09-10T06:27:26.261Z,16.20
2018-09-10T06:29:54.789Z,16.20
2018-09-10T06:32:23.254Z,16.30
2018-09-10T06:34:51.717Z,16.30
2018-09-10T06:37:20.161Z,16.40
2018-09-10T06:39:48.589Z,16.40
2018-09-10T06:42:17.065Z,16.40
2018-09-10T06:44:45.520Z,16.50
2018-09-10T06:47:14.581Z,16.50
2018-09-10T06:49:43.137Z,16.60
2018-09-10T06:52:11.569Z,16.70
2018-09-10T06:54:40.016Z,16.60
2018-09-10T06:57:08.456Z,16.70
2018-09-10T06:59:36.930Z,16.70
2018-09-10T07:02:05.381Z,16.70
2018-09-10T07:04:33.813Z,16.80
2018-09-10T07:07:02.274Z,16.80
2018-09-10T07:09:30.842Z,16.90
2018-09-10T07:11:59.317Z,16.90
2018-09-10T07:14:28.435Z,16.80
2018-09-10T07:16:56.906Z,16.90
2018-09-10T07:19:25.350Z,16.90
2018-09-10T07:21:53.793Z,17.10
2018-09-10T07:24:22.278Z,17.30
2018-09-10T07:26:50.750Z,17.30
2018-09-10T07:29:19.240Z,17.40
2018-09-10T07:31:47.677Z,17.70
2018-09-10T07:34:16.151Z,18.20
2018-09-10T07:36:44.617Z,18.10
2018-09-10T07:39:13.059Z,18.40
2018-09-10T07:41:41.570Z,18.30
2018-09-10T07:44:10.042Z,18.40
2018-09-10T07:46:38.841Z,18.90
2018-09-10T07:49:07.336Z,18.60
2018-09-10T07:51:35.809Z,18.70
2018-09-10T07:54:04.270Z,18.80
2018-09-10T07:56:32.746Z,19.30
2018-09-10T07:59:01.166Z,19.40
2018-09-10T08:01:29.642Z,19.30
2018-09-10T08:03:58.086Z,19.20
2018-09-10T08:06:26.569Z,19.10
2018-09-10T08:08:55.229Z,19.10
2018-09-10T08:11:23.718Z,19.20
2018-09-10T08:13:52.511Z,19.40
2018-09-10T08:16:21.222Z,20.30
2018-09-10T08:18:49.891Z,20.90
2018-09-10T08:21:18.375Z,21.30
2018-09-10T08:23:46.903Z,21.60
2018-09-10T08:26:15.418Z,22.30
2018-09-10T08:28:43.958Z,22.50
2018-09-10T08:31:15.611Z,23.00
2018-09-10T08:33:44.165Z,23.40
2018-09-10T08:36:12.710Z,22.70
2018-09-10T08:38:41.271Z,22.30
2018-09-10T08:41:09.753Z,22.50
2018-09-10T08:43:38.409Z,22.20
2018-09-10T08:46:06.966Z,22.00
2018-09-10T08:48:36.323Z,22.10
2018-09-10T08:51:06.126Z,21.70
2018-09-10T08:53:34.915Z,22.00
2018-09-10T08:56:03.591Z,22.70
2018-09-10T08:58:31.988Z,22.90
2018-09-10T09:01:01.061Z,22.90
2018-09-10T09:03:29.641Z,22.70
2018-09-10T09:05:58.201Z,22.80
2018-09-10T09:08:26.750Z,22.10
2018-09-10T09:10:55.271Z,22.30
2018-09-10T09:13:23.801Z,22.20
2018-09-10T09:15:53.326Z,22.20
2018-09-10T09:18:21.827Z,22.20
2018-09-10T09:20:50.329Z,21.70
2018-09-10T09:23:19.030Z,21.30
2018-09-10T09:25:47.480Z,21.50
2018-09-10T09:28:15.985Z,21.70
2018-09-10T09:30:44.541Z,22.60
2018-09-10T09:33:13.078Z,23.30
2018-09-10T09:35:47.938Z,23.40
2018-09-10T09:38:21.765Z,23.70
2018-09-10T09:40:55.523Z,23.60
2018-09-10T09:43:29.459Z,22.90
2018-09-10T09:46:05.101Z,22.40
2018-09-10T09:48:33.775Z,22.20
2018-09-10T09:57:59.690Z,22.80
2018-09-10T10:00:34.033Z,22.60
2018-09-10T10:03:07.778Z,23.00
2018-09-10T10:05:36.233Z,23.20
2018-09-10T10:08:04.699Z,23.00
2018-09-10T10:10:33.153Z,23.00
2018-09-10T10:13:01.585Z,23.50
2018-09-10T10:15:30.041Z,23.30
2018-09-10T10:17:58.506Z,23.70
2018-09-10T10:20:26.969Z,23.70
2018-09-10T10:22:55.421Z,23.50
2018-09-10T10:25:23.913Z,23.40
2018-09-10T10:27:52.346Z,24.00
2018-09-10T10:30:20.799Z,24.00
2018-09-10T10:32:49.343Z,24.20
2018-09-10T10:35:17.789Z,24.40
2018-09-10T10:37:46.317Z,24.20
2018-09-10T10:40:14.778Z,24.40
2018-09-10T10:42:43.250Z,23.40
2018-09-10T10:45:11.713Z,23.20
2018-09-10T10:47:40.202Z,23.70
2018-09-10T10:50:08.936Z,24.40
2018-09-10T10:52:37.441Z,24.50
2018-09-10T10:55:06.308Z,24.80
2018-09-10T10:57:34.789Z,23.90
2018-09-10T11:00:03.274Z,23.70
2018-09-10T11:02:31.706Z,23.20
2018-09-10T11:05:00.156Z,23.30
2018-09-10T11:07:28.593Z,23.40
2018-09-10T11:09:57.061Z,23.80
2018-09-10T11:12:25.517Z,24.00
2018-09-10T11:14:53.978Z,24.30
2018-09-10T11:17:22.432Z,24.50
2018-09-10T11:19:50.902Z,24.20
2018-09-10T11:22:19.375Z,24.30
2018-09-10T11:24:47.840Z,24.60
2018-09-10T11:27:16.725Z,25.00
2018-09-10T11:29:45.190Z,25.30
2018-09-10T11:32:13.909Z,25.30
2018-09-10T11:34:42.750Z,25.40
2018-09-10T11:37:11.337Z,24.70
2018-09-10T11:39:39.829Z,24.70
2018-09-10T11:42:08.321Z,24.80
2018-09-10T11:44:36.764Z,25.10
2018-09-10T11:47:05.251Z,25.30
2018-09-10T11:49:34.086Z,25.10
2018-09-10T11:52:02.620Z,25.50
2018-09-10T11:54:31.079Z,25.30
2018-09-10T11:56:59.572Z,25.40
2018-09-10T11:59:28.006Z,25.30
2018-09-10T12:01:56.484Z,26.00
2018-09-10T12:04:25.319Z,26.00
2018-09-10T12:06:53.740Z,25.60
2018-09-10T12:09:22.205Z,25.10
2018-09-10T12:11:50.686Z,25.80
2018-09-10T12:14:19.161Z,26.30
2018-09-10T12:16:47.671Z,26.50
2018-09-10T12:19:16.099Z,26.70
2018-09-10T12:21:44.541Z,26.90
2018-09-10T12:24:12.994Z,26.90
2018-09-10T12:26:41.476Z,26.90
2018-09-10T12:29:10.278Z,25.90
2018-09-10T12:31:38.818Z,25.10
2018-09-10T12:34:07.731Z,25.30
2018-09-10T12:36:36.211Z,25.30
2018-09-10T12:39:07.331Z,25.60
2018-09-10T12:41:35.870Z,25.30
2018-09-10T12:44:04.882Z,25.50
2018-09-10T12:46:33.479Z,25.70
2018-09-10T12:49:01.881Z,26.50
2018-09-10T12:51:30.365Z,27.00
2018-09-10T12:53:58.887Z,27.20
2018-09-10T12:56:27.362Z,28.20
2018-09-10T12:58:55.997Z,29.30
2018-09-10T13:01:24.442Z,29.00
2018-09-10T13:03:53.731Z,28.10
2018-09-10T13:06:22.203Z,28.70
2018-09-10T13:08:50.699Z,28.70
2018-09-10T13:11:19.359Z,28.40
2018-09-10T13:13:47.803Z,28.00
2018-09-10T13:16:16.294Z,28.00
2018-09-10T13:18:44.713Z,27.30
2018-09-10T13:21:13.160Z,27.50
2018-09-10T13:23:41.651Z,27.50
2018-09-10T13:26:10.157Z,27.10
2018-09-10T13:28:38.618Z,27.00
2018-09-10T13:31:07.302Z,26.90
2018-09-10T13:33:35.793Z,25.80
2018-09-10T13:36:05.606Z,26.30
2018-09-10T13:38:34.139Z,26.20
2018-09-10T13:41:02.769Z,25.90
2018-09-10T13:43:31.222Z,25.70
2018-09-10T13:46:01.759Z,25.30
2018-09-10T13:48:30.263Z,25.60
2018-09-10T13:50:58.740Z,25.50
2018-09-10T13:53:27.209Z,25.70
2018-09-10T13:55:55.658Z,26.00
2018-09-10T13:58:24.414Z,26.00
2018-09-10T14:00:53.202Z,25.70
2018-09-10T14:03:21.665Z,26.10
2018-09-10T14:05:50.133Z,25.90
2018-09-10T14:08:19.199Z,25.90
2018-09-10T14:10:47.761Z,25.30
2018-09-10T14:13:28.160Z,25.30
2018-09-10T14:15:56.666Z,24.80
2018-09-10T14:18:25.162Z,24.80
2018-09-10T14:20:53.701Z,24.50
2018-09-10T14:23:22.269Z,24.40
2018-09-10T14:25:51.081Z,24.60
2018-09-10T14:28:19.653Z,24.60
2018-09-10T14:30:48.250Z,24.20
2018-09-10T14:33:16.965Z,24.30
2018-09-10T14:35:45.529Z,24.30
2018-09-10T14:38:13.987Z,24.50
2018-09-10T14:40:42.473Z,24.60
2018-09-10T14:43:11.034Z,24.50
2018-09-10T14:45:39.438Z,24.30
2018-09-10T14:48:07.880Z,24.10
2018-09-10T14:50:36.721Z,24.10
2018-09-10T14:53:05.227Z,24.10
2018-09-10T14:55:33.750Z,24.60
2018-09-10T14:58:02.334Z,24.80
2018-09-10T15:00:30.775Z,24.60
2018-09-10T15:02:59.313Z,24.50
2018-09-10T15:05:27.761Z,24.80
2018-09-10T15:07:56.226Z,24.90
2018-09-10T15:10:24.699Z,25.10
2018-09-10T15:12:53.147Z,25.30
2018-09-10T15:15:21.614Z,25.20
2018-09-10T15:17:50.062Z,24.70
2018-09-10T15:20:18.610Z,24.70
2018-09-10T15:22:47.054Z,24.30
2018-09-10T15:25:15.507Z,24.80
2018-09-10T15:27:43.968Z,24.60
2018-09-10T15:30:12.533Z,24.90
2018-09-10T15:32:40.991Z,25.10
2018-09-10T15:35:09.498Z,24.90
2018-09-10T15:37:37.985Z,24.50
2018-09-10T15:40:07.706Z,24.60
2018-09-10T15:42:36.188Z,24.40
2018-09-10T15:45:04.938Z,24.40
2018-09-10T15:47:33.426Z,24.60
2018-09-10T15:50:01.866Z,24.30
2018-09-10T15:52:30.366Z,24.60
2018-09-10T15:54:58.801Z,24.80
2018-09-10T15:57:27.394Z,24.80
2018-09-10T15:59:55.917Z,24.80
2018-09-10T16:02:24.373Z,24.60
2018-09-10T16:04:52.875Z,24.40
2018-09-10T16:07:21.349Z,24.10
2018-09-10T16:09:49.789Z,23.80
2018-09-10T16:12:18.322Z,24.00
2018-09-10T16:14:46.759Z,24.00
2018-09-10T16:17:15.219Z,23.80
2018-09-10T16:19:43.670Z,23.70
2018-09-10T16:22:12.130Z,23.70
2018-09-10T16:24:40.647Z,23.60
2018-09-10T16:27:09.101Z,23.70
2018-09-10T16:29:37.550Z,23.50
2018-09-10T16:32:06.186Z,23.20
2018-09-10T16:34:34.650Z,23.10
2018-09-10T16:37:03.130Z,22.90
2018-09-10T16:39:31.603Z,22.90
2018-09-10T16:42:00.113Z,22.90
2018-09-10T16:44:28.583Z,22.70
2018-09-10T16:46:57.098Z,22.80
2018-09-10T16:49:25.759Z,22.80
2018-09-10T16:51:54.279Z,22.90
2018-09-10T16:54:22.756Z,22.90
2018-09-10T16:56:51.223Z,22.80
2018-09-10T16:59:19.688Z,22.70
2018-09-10T17:01:48.147Z,22.50
2018-09-10T17:04:16.586Z,22.50
2018-09-10T17:06:45.195Z,22.40
2018-09-10T17:09:13.691Z,22.40
2018-09-10T17:11:42.146Z,22.30
2018-09-10T17:14:10.662Z,22.30
2018-09-10T17:16:39.402Z,22.30
2018-09-10T17:19:07.859Z,22.20
2018-09-10T17:21:36.354Z,22.10
2018-09-10T17:24:05.025Z,22.00
2018-09-10T17:26:33.510Z,22.00
2018-09-10T17:29:02.046Z,21.90
2018-09-10T17:31:30.473Z,21.80
2018-09-10T17:33:59.010Z,21.80
2018-09-10T17:36:28.058Z,21.80
2018-09-10T17:38:56.527Z,21.80
2018-09-10T17:41:25.630Z,21.60
2018-09-10T17:43:54.116Z,21.50
2018-09-10T17:46:22.610Z,21.40
2018-09-10T17:48:51.074Z,21.30
2018-09-10T17:51:19.523Z,21.20
2018-09-10T17:53:48.336Z,21.20
2018-09-10T17:56:16.835Z,21.10
2018-09-10T17:58:45.309Z,21.10
2018-09-10T18:01:13.975Z,21.10
2018-09-10T18:03:42.412Z,20.90
2018-09-10T18:06:11.841Z,20.90
2018-09-10T18:08:40.469Z,20.80
2018-09-10T18:11:08.954Z,20.70
2018-09-10T18:13:37.528Z,20.60
2018-09-10T18:16:06.069Z,20.50
2018-09-10T18:18:34.556Z,20.40
2018-09-10T18:21:03.149Z,20.50
2018-09-10T18:23:33.667Z,20.50
2018-09-10T18:26:02.433Z,20.50
2018-09-10T18:28:31.253Z,20.70
2018-09-10T18:30:59.847Z,20.70
2018-09-10T18:33:28.305Z,20.70
2018-09-10T18:35:56.787Z,20.70
2018-09-10T18:38:25.234Z,20.70
2018-09-10T18:40:53.756Z,20.70
2018-09-10T18:43:22.330Z,20.70
2018-09-10T18:45:50.757Z,20.70
2018-09-10T18:48:19.255Z,20.70
2018-09-10T18:50:47.735Z,20.70
2018-09-10T18:53:17.146Z,20.60
2018-09-10T18:55:45.660Z,20.40
2018-09-10T18:58:14.145Z,20.30
2018-09-10T19:00:42.623Z,20.30
2018-09-10T19:03:11.586Z,20.20
2018-09-10T19:05:40.038Z,20.10
2018-09-10T19:08:08.540Z,20.10
2018-09-10T19:10:37.011Z,20.00
2018-09-10T19:13:05.738Z,19.90
2018-09-10T19:15:34.294Z,19.70
2018-09-10T19:18:02.825Z,19.50
2018-09-10T19:20:31.265Z,19.40
2018-09-10T19:22:59.730Z,19.30
2018-09-10T19:25:28.238Z,19.30
2018-09-10T19:27:56.709Z,19.10
2018-09-10T19:30:25.294Z,19.10
2018-09-10T19:32:53.660Z,19.10
2018-09-10T19:35:22.755Z,19.10
2018-09-10T19:37:51.226Z,19.10
2018-09-10T19:40:19.690Z,19.00
2018-09-10T19:42:48.155Z,19.00
2018-09-10T19:45:16.612Z,18.90
2018-09-10T19:47:45.068Z,18.80
2018-09-10T19:50:13.534Z,18.80
2018-09-10T19:52:42.139Z,18.80
2018-09-10T19:55:10.691Z,18.70
2018-09-10T19:57:39.170Z,18.70
2018-09-10T20:00:07.663Z,18.60
2018-09-10T20:02:36.229Z,18.60
2018-09-10T20:05:04.741Z,18.70
2018-09-10T20:07:33.185Z,18.70
2018-09-10T20:10:01.659Z,18.60
2018-09-10T20:12:30.150Z,18.60
2018-09-10T20:14:58.643Z,18.60
2018-09-10T20:17:27.123Z,18.70
2018-09-10T20:19:55.607Z,18.70
2018-09-10T20:22:24.116Z,18.70
2018-09-10T20:24:52.642Z,18.60
2018-09-10T20:27:21.154Z,18.60
2018-09-10T20:29:49.606Z,18.50
2018-09-10T20:32:18.121Z,18.50
2018-09-10T20:34:46.578Z,18.60
2018-09-10T20:37:15.091Z,18.50
2018-09-10T20:39:43.658Z,18.50
2018-09-10T20:42:12.103Z,18.50
2018-09-10T20:44:40.558Z,18.40
2018-09-10T20:47:09.116Z,18.40
2018-09-10T20:49:37.592Z,18.40
2018-09-10T20:52:06.258Z,18.30
2018-09-10T20:54:34.671Z,18.20
2018-09-10T20:57:03.868Z,18.20
2018-09-10T20:59:32.323Z,18.20
2018-09-10T21:02:07.332Z,18.10
2018-09-10T21:04:35.865Z,18.00
2018-09-10T21:07:04.445Z,18.00
2018-09-10T21:09:33.514Z,17.90
2018-09-10T21:12:02.058Z,17.80
2018-09-10T21:14:30.586Z,17.80
2018-09-10T21:16:59.101Z,17.80
2018-09-10T21:19:27.698Z,17.80
2018-09-10T21:21:56.214Z,17.70
2018-09-10T21:24:24.717Z,17.70
2018-09-10T21:26:54.001Z,17.70
2018-09-10T21:29:23.310Z,17.70
2018-09-10T21:31:53.693Z,17.70
2018-09-10T21:34:22.660Z,17.60
2018-09-10T21:36:51.153Z,17.50
2018-09-10T21:39:19.646Z,17.50
2018-09-10T21:41:48.115Z,17.50
2018-09-10T21:44:16.585Z,17.40
2018-09-10T21:46:45.122Z,17.30
2018-09-10T21:49:13.717Z,17.30
2018-09-10T21:51:42.267Z,17.30
2018-09-10T21:54:10.750Z,17.20
2018-09-10T21:56:39.397Z,17.20
2018-09-10T21:59:07.978Z,17.10
2018-09-10T22:01:36.556Z,17.10
2018-09-10T22:04:05.116Z,17.10
2018-09-10T22:06:33.627Z,17.00
2018-09-10T22:09:02.169Z,16.90
2018-09-10T22:11:30.673Z,16.90
2018-09-10T22:13:59.246Z,16.80
2018-09-10T22:16:27.762Z,16.70
2018-09-10T22:18:56.244Z,16.60
2018-09-10T22:21:24.797Z,16.50
2018-09-10T22:23:53.271Z,16.50
2018-09-10T22:26:22.019Z,16.50
2018-09-10T22:28:50.583Z,16.40
2018-09-10T22:31:19.157Z,16.40
2018-09-10T22:33:47.698Z,16.30
2018-09-10T22:36:16.158Z,16.30
2018-09-10T22:38:44.682Z,16.20
2018-09-10T22:41:13.240Z,16.00
2018-09-10T22:43:41.745Z,15.90
2018-09-10T22:46:10.246Z,15.90
2018-09-10T22:48:38.792Z,15.90
2018-09-10T22:51:07.262Z,15.90
2018-09-10T22:53:35.802Z,15.90
2018-09-10T22:56:04.339Z,15.90
2018-09-10T22:58:32.966Z,15.80
2018-09-10T23:01:01.503Z,15.80
2018-09-10T23:03:30.080Z,15.80
2018-09-10T23:05:58.592Z,15.80
2018-09-10T23:08:27.136Z,15.70
2018-09-10T23:10:55.614Z,15.70
2018-09-10T23:13:24.115Z,15.70
2018-09-10T23:15:52.906Z,15.60
2018-09-10T23:18:21.370Z,15.70
2018-09-10T23:20:49.846Z,15.70
2018-09-10T23:23:18.412Z,15.80
2018-09-10T23:25:46.896Z,15.80
2018-09-10T23:28:15.453Z,15.90
2018-09-10T23:30:43.981Z,15.90
2018-09-10T23:33:12.450Z,15.90
2018-09-10T23:35:41.244Z,15.90
2018-09-10T23:38:09.698Z,15.90
2018-09-10T23:40:38.154Z,15.80
2018-09-10T23:43:07.441Z,15.80
2018-09-10T23:45:35.942Z,15.70
2018-09-10T23:48:04.478Z,15.80
2018-09-10T23:50:32.982Z,15.70
2018-09-10T23:53:01.542Z,15.70
2018-09-10T23:55:30.038Z,15.60
2018-09-10T23:57:58.583Z,15.70
